sensor_id;sensor_type;location;lat;lon;timestamp;temperature;humidity
22321;DHT22;11328;53.928;18.522;2023-12-04T00:01:29;-0.40;99.90
22321;DHT22;11328;53.928;18.522;2023-12-04T00:03:58;-0.40;99.90
22321;DHT22;11328;53.928;18.522;2023-12-04T00:06:25;-0.30;99.90
22321;DHT22;11328;53.928;18.522;2023-12-04T00:08:52;-0.30;99.90
22321;DHT22;11328;53.928;18.522;2023-12-04T00:11:19;-0.30;99.90
22321;DHT22;11328;53.928;18.522;2023-12-04T00:13:46;-0.30;99.90
22321;DHT22;11328;53.928;18.522;2023-12-04T00:16:13;-0.30;99.90
22321;DHT22;11328;53.928;18.522;2023-12-04T00:18:40;-0.50;99.90
22321;DHT22;11328;53.928;18.522;2023-12-04T00:21:08;-0.40;99.90
22321;DHT22;11328;53.928;18.522;2023-12-04T00:23:35;-0.50;99.90
22321;DHT22;11328;53.928;18.522;2023-12-04T00:26:02;-0.50;99.90
22321;DHT22;11328;53.928;18.522;2023-12-04T00:28:29;-0.50;99.90
22321;DHT22;11328;53.928;18.522;2023-12-04T00:30:56;-0.60;99.90
22321;DHT22;11328;53.928;18.522;2023-12-04T00:33:24;-0.60;99.90
22321;DHT22;11328;53.928;18.522;2023-12-04T00:35:51;-0.70;99.90
22321;DHT22;11328;53.928;18.522;2023-12-04T00:38:18;-0.60;99.90
22321;DHT22;11328;53.928;18.522;2023-12-04T00:40:45;-0.60;99.90
22321;DHT22;11328;53.928;18.522;2023-12-04T00:43:12;-0.60;99.90
22321;DHT22;11328;53.928;18.522;2023-12-04T00:45:39;-0.60;99.90
22321;DHT22;11328;53.928;18.522;2023-12-04T00:48:06;-0.50;99.90
22321;DHT22;11328;53.928;18.522;2023-12-04T00:54:40;-0.60;99.90
22321;DHT22;11328;53.928;18.522;2023-12-04T00:57:10;-0.60;99.90
22321;DHT22;11328;53.928;18.522;2023-12-04T00:59:37;-0.60;99.90
22321;DHT22;11328;53.928;18.522;2023-12-04T01:02:06;-0.60;99.90
22321;DHT22;11328;53.928;18.522;2023-12-04T01:04:33;-0.70;99.90
22321;DHT22;11328;53.928;18.522;2023-12-04T01:07:01;-0.70;99.90
22321;DHT22;11328;53.928;18.522;2023-12-04T01:09:29;-0.70;99.90
22321;DHT22;11328;53.928;18.522;2023-12-04T01:11:56;-0.70;99.90
22321;DHT22;11328;53.928;18.522;2023-12-04T01:14:23;-0.80;99.90
22321;DHT22;11328;53.928;18.522;2023-12-04T01:16:51;-0.80;99.90
22321;DHT22;11328;53.928;18.522;2023-12-04T01:19:18;-0.80;99.90
22321;DHT22;11328;53.928;18.522;2023-12-04T01:21:45;-0.80;99.90
22321;DHT22;11328;53.928;18.522;2023-12-04T01:24:13;-0.80;99.90
22321;DHT22;11328;53.928;18.522;2023-12-04T01:26:41;-0.70;99.90
22321;DHT22;11328;53.928;18.522;2023-12-04T01:29:08;-0.70;99.90
22321;DHT22;11328;53.928;18.522;2023-12-04T01:31:36;-0.70;99.90
22321;DHT22;11328;53.928;18.522;2023-12-04T01:34:03;-0.70;99.90
22321;DHT22;11328;53.928;18.522;2023-12-04T01:36:30;-0.60;99.90
22321;DHT22;11328;53.928;18.522;2023-12-04T01:38:58;-0.70;99.90
22321;DHT22;11328;53.928;18.522;2023-12-04T01:41:25;-0.70;99.90
22321;DHT22;11328;53.928;18.522;2023-12-04T01:43:52;-0.70;99.90
22321;DHT22;11328;53.928;18.522;2023-12-04T01:46:20;-0.70;99.90
22321;DHT22;11328;53.928;18.522;2023-12-04T01:48:49;-0.80;99.90
22321;DHT22;11328;53.928;18.522;2023-12-04T01:51:17;-0.70;99.90
22321;DHT22;11328;53.928;18.522;2023-12-04T01:53:46;-0.70;99.90
22321;DHT22;11328;53.928;18.522;2023-12-04T01:56:15;-0.80;99.90
22321;DHT22;11328;53.928;18.522;2023-12-04T01:58:44;-0.80;99.90
22321;DHT22;11328;53.928;18.522;2023-12-04T02:01:12;-0.80;99.90
22321;DHT22;11328;53.928;18.522;2023-12-04T02:03:41;-0.90;99.90
22321;DHT22;11328;53.928;18.522;2023-12-04T02:06:09;-0.90;99.90
22321;DHT22;11328;53.928;18.522;2023-12-04T02:08:40;-0.90;99.90
22321;DHT22;11328;53.928;18.522;2023-12-04T02:11:08;-0.90;99.90
22321;DHT22;11328;53.928;18.522;2023-12-04T02:13:36;-1.00;99.90
22321;DHT22;11328;53.928;18.522;2023-12-04T02:16:05;-1.00;99.90
22321;DHT22;11328;53.928;18.522;2023-12-04T02:18:36;-1.10;99.90
22321;DHT22;11328;53.928;18.522;2023-12-04T02:21:05;-1.10;99.90
22321;DHT22;11328;53.928;18.522;2023-12-04T02:23:32;-1.20;99.90
22321;DHT22;11328;53.928;18.522;2023-12-04T02:26:05;-1.20;99.90
22321;DHT22;11328;53.928;18.522;2023-12-04T02:28:41;-1.20;99.90
22321;DHT22;11328;53.928;18.522;2023-12-04T02:31:15;-1.40;99.90
22321;DHT22;11328;53.928;18.522;2023-12-04T02:33:45;-1.40;99.90
22321;DHT22;11328;53.928;18.522;2023-12-04T02:36:15;-1.40;99.90
22321;DHT22;11328;53.928;18.522;2023-12-04T02:38:44;-1.40;99.90
22321;DHT22;11328;53.928;18.522;2023-12-04T02:41:11;-1.40;99.90
22321;DHT22;11328;53.928;18.522;2023-12-04T02:43:38;-1.50;99.90
22321;DHT22;11328;53.928;18.522;2023-12-04T02:46:05;-1.60;99.90
22321;DHT22;11328;53.928;18.522;2023-12-04T02:48:33;-1.50;99.90
22321;DHT22;11328;53.928;18.522;2023-12-04T02:51:00;-1.50;99.90
22321;DHT22;11328;53.928;18.522;2023-12-04T02:53:27;-1.50;99.90
22321;DHT22;11328;53.928;18.522;2023-12-04T02:55:54;-1.60;99.90
22321;DHT22;11328;53.928;18.522;2023-12-04T02:58:21;-1.60;99.90
22321;DHT22;11328;53.928;18.522;2023-12-04T03:00:48;-1.70;99.90
22321;DHT22;11328;53.928;18.522;2023-12-04T03:03:15;-1.70;99.90
22321;DHT22;11328;53.928;18.522;2023-12-04T03:05:42;-1.70;99.90
22321;DHT22;11328;53.928;18.522;2023-12-04T03:08:09;-1.80;99.90
22321;DHT22;11328;53.928;18.522;2023-12-04T03:10:36;-1.80;99.90
22321;DHT22;11328;53.928;18.522;2023-12-04T03:13:03;-1.80;99.90
22321;DHT22;11328;53.928;18.522;2023-12-04T03:15:31;-1.80;99.90
22321;DHT22;11328;53.928;18.522;2023-12-04T03:17:59;-1.80;99.90
22321;DHT22;11328;53.928;18.522;2023-12-04T03:20:32;-1.70;99.90
22321;DHT22;11328;53.928;18.522;2023-12-04T03:22:59;-1.80;99.90
22321;DHT22;11328;53.928;18.522;2023-12-04T03:25:26;-1.80;99.90
22321;DHT22;11328;53.928;18.522;2023-12-04T03:27:53;-1.90;99.90
22321;DHT22;11328;53.928;18.522;2023-12-04T03:30:20;-2.00;99.90
22321;DHT22;11328;53.928;18.522;2023-12-04T03:32:47;-2.00;99.90
22321;DHT22;11328;53.928;18.522;2023-12-04T03:35:15;-2.00;99.90
22321;DHT22;11328;53.928;18.522;2023-12-04T03:37:42;-2.00;99.90
22321;DHT22;11328;53.928;18.522;2023-12-04T03:40:09;-1.90;99.90
22321;DHT22;11328;53.928;18.522;2023-12-04T03:42:37;-2.00;99.90
22321;DHT22;11328;53.928;18.522;2023-12-04T03:45:04;-2.00;99.90
22321;DHT22;11328;53.928;18.522;2023-12-04T03:47:32;-2.00;99.90
22321;DHT22;11328;53.928;18.522;2023-12-04T03:49:59;-2.00;99.90
22321;DHT22;11328;53.928;18.522;2023-12-04T03:52:26;-1.90;99.90
22321;DHT22;11328;53.928;18.522;2023-12-04T03:54:53;-2.00;99.90
22321;DHT22;11328;53.928;18.522;2023-12-04T03:57:20;-2.00;99.90
22321;DHT22;11328;53.928;18.522;2023-12-04T03:59:47;-2.00;99.90
22321;DHT22;11328;53.928;18.522;2023-12-04T04:02:14;-2.00;99.90
22321;DHT22;11328;53.928;18.522;2023-12-04T04:04:41;-2.00;99.90
22321;DHT22;11328;53.928;18.522;2023-12-04T04:07:09;-2.00;99.90
22321;DHT22;11328;53.928;18.522;2023-12-04T04:09:36;-2.00;99.90
22321;DHT22;11328;53.928;18.522;2023-12-04T04:12:03;-1.90;99.90
22321;DHT22;11328;53.928;18.522;2023-12-04T04:14:31;-1.90;99.90
22321;DHT22;11328;53.928;18.522;2023-12-04T04:16:58;-1.90;99.90
22321;DHT22;11328;53.928;18.522;2023-12-04T04:19:25;-2.00;99.90
22321;DHT22;11328;53.928;18.522;2023-12-04T04:21:53;-1.90;99.90
22321;DHT22;11328;53.928;18.522;2023-12-04T04:24:20;-1.90;99.90
22321;DHT22;11328;53.928;18.522;2023-12-04T04:26:47;-1.90;99.90
22321;DHT22;11328;53.928;18.522;2023-12-04T04:29:14;-1.90;99.90
22321;DHT22;11328;53.928;18.522;2023-12-04T04:31:41;-1.80;99.90
22321;DHT22;11328;53.928;18.522;2023-12-04T04:34:08;-1.90;99.90
22321;DHT22;11328;53.928;18.522;2023-12-04T04:36:36;-2.00;99.90
22321;DHT22;11328;53.928;18.522;2023-12-04T04:39:03;-2.00;99.90
22321;DHT22;11328;53.928;18.522;2023-12-04T04:41:31;-2.10;99.90
22321;DHT22;11328;53.928;18.522;2023-12-04T04:43:58;-2.10;99.90
22321;DHT22;11328;53.928;18.522;2023-12-04T04:46:25;-2.10;99.90
22321;DHT22;11328;53.928;18.522;2023-12-04T04:48:53;-2.10;99.90
22321;DHT22;11328;53.928;18.522;2023-12-04T04:51:21;-2.00;99.90
22321;DHT22;11328;53.928;18.522;2023-12-04T04:53:48;-1.90;99.90
22321;DHT22;11328;53.928;18.522;2023-12-04T04:56:15;-1.80;99.90
22321;DHT22;11328;53.928;18.522;2023-12-04T04:58:43;-1.70;99.90
22321;DHT22;11328;53.928;18.522;2023-12-04T05:01:11;-1.60;99.90
22321;DHT22;11328;53.928;18.522;2023-12-04T05:03:38;-1.70;99.90
22321;DHT22;11328;53.928;18.522;2023-12-04T05:06:05;-1.60;99.90
22321;DHT22;11328;53.928;18.522;2023-12-04T05:08:32;-1.60;99.90
22321;DHT22;11328;53.928;18.522;2023-12-04T05:10:59;-1.60;99.90
22321;DHT22;11328;53.928;18.522;2023-12-04T05:13:26;-1.50;99.90
22321;DHT22;11328;53.928;18.522;2023-12-04T05:15:53;-1.40;99.90
22321;DHT22;11328;53.928;18.522;2023-12-04T05:18:20;-1.50;99.90
22321;DHT22;11328;53.928;18.522;2023-12-04T05:20:48;-1.50;99.90
22321;DHT22;11328;53.928;18.522;2023-12-04T05:23:15;-1.50;99.90
22321;DHT22;11328;53.928;18.522;2023-12-04T05:25:42;-1.40;99.90
22321;DHT22;11328;53.928;18.522;2023-12-04T05:28:16;-1.40;99.90
22321;DHT22;11328;53.928;18.522;2023-12-04T05:30:43;-1.30;99.90
22321;DHT22;11328;53.928;18.522;2023-12-04T05:33:11;-1.20;99.90
22321;DHT22;11328;53.928;18.522;2023-12-04T05:35:38;-1.30;99.90
22321;DHT22;11328;53.928;18.522;2023-12-04T05:38:05;-1.30;99.90
22321;DHT22;11328;53.928;18.522;2023-12-04T05:40:34;-1.20;99.90
22321;DHT22;11328;53.928;18.522;2023-12-04T05:43:01;-1.20;99.90
22321;DHT22;11328;53.928;18.522;2023-12-04T05:45:28;-1.20;99.90
22321;DHT22;11328;53.928;18.522;2023-12-04T05:47:55;-1.30;99.90
22321;DHT22;11328;53.928;18.522;2023-12-04T05:50:24;-1.20;99.90
22321;DHT22;11328;53.928;18.522;2023-12-04T05:52:51;-1.20;99.90
22321;DHT22;11328;53.928;18.522;2023-12-04T05:55:19;-1.30;99.90
22321;DHT22;11328;53.928;18.522;2023-12-04T05:57:46;-1.20;99.90
22321;DHT22;11328;53.928;18.522;2023-12-04T06:00:14;-1.20;99.90
22321;DHT22;11328;53.928;18.522;2023-12-04T06:02:42;-1.10;99.90
22321;DHT22;11328;53.928;18.522;2023-12-04T06:05:10;-1.10;99.90
22321;DHT22;11328;53.928;18.522;2023-12-04T06:07:38;-1.10;99.90
22321;DHT22;11328;53.928;18.522;2023-12-04T06:10:05;-1.10;99.90
22321;DHT22;11328;53.928;18.522;2023-12-04T06:12:36;-1.20;99.90
22321;DHT22;11328;53.928;18.522;2023-12-04T06:15:04;-1.30;99.90
22321;DHT22;11328;53.928;18.522;2023-12-04T06:17:31;-1.30;99.90
22321;DHT22;11328;53.928;18.522;2023-12-04T06:19:58;-1.30;99.90
22321;DHT22;11328;53.928;18.522;2023-12-04T06:22:26;-1.30;99.90
22321;DHT22;11328;53.928;18.522;2023-12-04T06:24:53;-1.30;99.90
22321;DHT22;11328;53.928;18.522;2023-12-04T06:27:21;-1.20;99.90
22321;DHT22;11328;53.928;18.522;2023-12-04T06:29:51;-1.10;99.90
22321;DHT22;11328;53.928;18.522;2023-12-04T06:32:19;-1.10;99.90
22321;DHT22;11328;53.928;18.522;2023-12-04T06:34:47;-1.10;99.90
22321;DHT22;11328;53.928;18.522;2023-12-04T06:37:15;-1.00;99.90
22321;DHT22;11328;53.928;18.522;2023-12-04T06:39:45;-1.00;99.90
22321;DHT22;11328;53.928;18.522;2023-12-04T06:42:15;-0.90;99.90
22321;DHT22;11328;53.928;18.522;2023-12-04T06:44:43;-1.00;99.90
22321;DHT22;11328;53.928;18.522;2023-12-04T06:47:12;-0.90;99.90
22321;DHT22;11328;53.928;18.522;2023-12-04T06:49:44;-0.90;99.90
22321;DHT22;11328;53.928;18.522;2023-12-04T06:52:11;-0.80;99.90
22321;DHT22;11328;53.928;18.522;2023-12-04T06:54:38;-0.80;99.90
22321;DHT22;11328;53.928;18.522;2023-12-04T06:57:06;-0.80;99.90
22321;DHT22;11328;53.928;18.522;2023-12-04T06:59:33;-0.80;99.90
22321;DHT22;11328;53.928;18.522;2023-12-04T07:02:04;-0.80;99.90
22321;DHT22;11328;53.928;18.522;2023-12-04T07:04:32;-0.80;99.90
22321;DHT22;11328;53.928;18.522;2023-12-04T07:06:59;-0.70;99.90
22321;DHT22;11328;53.928;18.522;2023-12-04T07:09:32;-0.60;99.90
22321;DHT22;11328;53.928;18.522;2023-12-04T07:12:01;-0.60;99.90
22321;DHT22;11328;53.928;18.522;2023-12-04T07:14:29;-0.40;99.90
22321;DHT22;11328;53.928;18.522;2023-12-04T07:16:56;-0.30;99.90
22321;DHT22;11328;53.928;18.522;2023-12-04T07:19:23;-0.20;99.90
22321;DHT22;11328;53.928;18.522;2023-12-04T07:21:51;-0.20;99.90
22321;DHT22;11328;53.928;18.522;2023-12-04T07:24:18;-0.10;99.90
22321;DHT22;11328;53.928;18.522;2023-12-04T07:26:45;-0.10;99.90
22321;DHT22;11328;53.928;18.522;2023-12-04T07:29:12;-0.10;99.90
22321;DHT22;11328;53.928;18.522;2023-12-04T07:31:41;-0.10;99.90
22321;DHT22;11328;53.928;18.522;2023-12-04T07:34:08;-0.10;99.90
22321;DHT22;11328;53.928;18.522;2023-12-04T07:36:36;-0.10;99.90
22321;DHT22;11328;53.928;18.522;2023-12-04T07:39:03;-0.10;99.90
22321;DHT22;11328;53.928;18.522;2023-12-04T07:41:33;-0.10;99.90
22321;DHT22;11328;53.928;18.522;2023-12-04T07:44:00;-0.10;99.90
22321;DHT22;11328;53.928;18.522;2023-12-04T07:46:27;-0.10;99.90
22321;DHT22;11328;53.928;18.522;2023-12-04T07:48:54;-0.10;99.90
22321;DHT22;11328;53.928;18.522;2023-12-04T07:51:22;0.00;99.90
22321;DHT22;11328;53.928;18.522;2023-12-04T07:53:49;0.00;99.90
22321;DHT22;11328;53.928;18.522;2023-12-04T07:56:17;0.00;99.90
22321;DHT22;11328;53.928;18.522;2023-12-04T07:58:44;0.10;99.90
22321;DHT22;11328;53.928;18.522;2023-12-04T08:01:11;0.10;99.90
22321;DHT22;11328;53.928;18.522;2023-12-04T08:03:38;0.10;99.90
22321;DHT22;11328;53.928;18.522;2023-12-04T08:06:06;0.10;99.90
22321;DHT22;11328;53.928;18.522;2023-12-04T08:08:33;0.10;99.90
22321;DHT22;11328;53.928;18.522;2023-12-04T08:11:00;0.10;99.90
22321;DHT22;11328;53.928;18.522;2023-12-04T08:13:28;0.10;99.90
22321;DHT22;11328;53.928;18.522;2023-12-04T08:15:55;0.10;99.90
22321;DHT22;11328;53.928;18.522;2023-12-04T08:18:22;0.10;99.90
22321;DHT22;11328;53.928;18.522;2023-12-04T08:20:49;0.10;99.90
22321;DHT22;11328;53.928;18.522;2023-12-04T08:23:16;0.20;99.90
22321;DHT22;11328;53.928;18.522;2023-12-04T08:25:43;0.20;99.90
22321;DHT22;11328;53.928;18.522;2023-12-04T08:28:11;0.20;99.90
22321;DHT22;11328;53.928;18.522;2023-12-04T08:30:38;0.20;99.90
22321;DHT22;11328;53.928;18.522;2023-12-04T08:33:05;0.20;99.90
22321;DHT22;11328;53.928;18.522;2023-12-04T08:35:33;0.10;99.90
22321;DHT22;11328;53.928;18.522;2023-12-04T08:38:00;0.10;99.90
22321;DHT22;11328;53.928;18.522;2023-12-04T08:40:27;0.10;99.90
22321;DHT22;11328;53.928;18.522;2023-12-04T08:42:54;0.20;99.90
22321;DHT22;11328;53.928;18.522;2023-12-04T08:45:21;0.30;99.90
22321;DHT22;11328;53.928;18.522;2023-12-04T08:47:48;0.20;99.90
22321;DHT22;11328;53.928;18.522;2023-12-04T08:50:16;0.20;99.90
22321;DHT22;11328;53.928;18.522;2023-12-04T08:52:43;0.20;99.90
22321;DHT22;11328;53.928;18.522;2023-12-04T08:55:11;0.20;99.90
22321;DHT22;11328;53.928;18.522;2023-12-04T08:57:39;0.30;99.90
22321;DHT22;11328;53.928;18.522;2023-12-04T09:00:06;0.30;99.90
22321;DHT22;11328;53.928;18.522;2023-12-04T09:02:35;0.40;99.90
22321;DHT22;11328;53.928;18.522;2023-12-04T09:05:12;0.40;99.90
22321;DHT22;11328;53.928;18.522;2023-12-04T09:07:39;0.40;99.90
22321;DHT22;11328;53.928;18.522;2023-12-04T09:10:26;0.50;99.90
22321;DHT22;11328;53.928;18.522;2023-12-04T09:13:15;0.40;99.90
22321;DHT22;11328;53.928;18.522;2023-12-04T09:15:42;0.50;99.90
22321;DHT22;11328;53.928;18.522;2023-12-04T09:18:09;0.40;99.90
22321;DHT22;11328;53.928;18.522;2023-12-04T09:20:36;0.30;99.90
22321;DHT22;11328;53.928;18.522;2023-12-04T09:23:04;0.20;99.90
22321;DHT22;11328;53.928;18.522;2023-12-04T09:25:35;0.20;99.90
22321;DHT22;11328;53.928;18.522;2023-12-04T09:28:03;0.20;99.90
22321;DHT22;11328;53.928;18.522;2023-12-04T09:30:30;0.20;99.90
22321;DHT22;11328;53.928;18.522;2023-12-04T09:32:57;0.20;99.90
22321;DHT22;11328;53.928;18.522;2023-12-04T09:35:25;0.30;99.90
22321;DHT22;11328;53.928;18.522;2023-12-04T09:37:52;0.30;99.90
22321;DHT22;11328;53.928;18.522;2023-12-04T09:40:19;0.30;99.90
22321;DHT22;11328;53.928;18.522;2023-12-04T09:42:46;0.30;99.90
22321;DHT22;11328;53.928;18.522;2023-12-04T09:45:15;0.30;99.90
22321;DHT22;11328;53.928;18.522;2023-12-04T09:47:42;0.30;99.90
22321;DHT22;11328;53.928;18.522;2023-12-04T09:50:10;0.30;99.90
22321;DHT22;11328;53.928;18.522;2023-12-04T09:52:38;0.30;99.90
22321;DHT22;11328;53.928;18.522;2023-12-04T09:55:05;0.20;99.90
22321;DHT22;11328;53.928;18.522;2023-12-04T09:57:33;0.10;99.90
22321;DHT22;11328;53.928;18.522;2023-12-04T10:00:03;0.20;99.90
22321;DHT22;11328;53.928;18.522;2023-12-04T10:02:33;0.20;99.90
22321;DHT22;11328;53.928;18.522;2023-12-04T10:05:02;0.20;99.90
22321;DHT22;11328;53.928;18.522;2023-12-04T10:07:31;0.30;99.90
22321;DHT22;11328;53.928;18.522;2023-12-04T10:09:58;0.30;99.90
22321;DHT22;11328;53.928;18.522;2023-12-04T10:12:26;0.30;99.90
22321;DHT22;11328;53.928;18.522;2023-12-04T10:17:40;0.30;99.90
22321;DHT22;11328;53.928;18.522;2023-12-04T10:20:12;0.40;99.90
22321;DHT22;11328;53.928;18.522;2023-12-04T10:22:56;0.40;99.90
22321;DHT22;11328;53.928;18.522;2023-12-04T10:25:27;0.40;99.90
22321;DHT22;11328;53.928;18.522;2023-12-04T10:28:10;0.30;99.90
22321;DHT22;11328;53.928;18.522;2023-12-04T10:30:39;0.40;99.90
22321;DHT22;11328;53.928;18.522;2023-12-04T10:33:07;0.40;99.90
22321;DHT22;11328;53.928;18.522;2023-12-04T10:35:36;0.40;99.90
22321;DHT22;11328;53.928;18.522;2023-12-04T10:38:05;0.40;99.90
22321;DHT22;11328;53.928;18.522;2023-12-04T10:40:34;0.40;99.90
22321;DHT22;11328;53.928;18.522;2023-12-04T10:43:15;0.50;99.90
22321;DHT22;11328;53.928;18.522;2023-12-04T10:45:49;0.50;99.90
22321;DHT22;11328;53.928;18.522;2023-12-04T10:48:18;0.50;99.90
22321;DHT22;11328;53.928;18.522;2023-12-04T10:50:48;0.50;99.90
22321;DHT22;11328;53.928;18.522;2023-12-04T10:53:17;0.50;99.90
22321;DHT22;11328;53.928;18.522;2023-12-04T10:55:44;0.60;99.90
22321;DHT22;11328;53.928;18.522;2023-12-04T10:58:14;0.70;99.90
22321;DHT22;11328;53.928;18.522;2023-12-04T11:00:46;0.80;99.90
22321;DHT22;11328;53.928;18.522;2023-12-04T11:03:40;1.00;99.90
22321;DHT22;11328;53.928;18.522;2023-12-04T11:06:12;1.00;99.90
22321;DHT22;11328;53.928;18.522;2023-12-04T11:08:43;0.90;99.90
22321;DHT22;11328;53.928;18.522;2023-12-04T11:11:19;0.80;99.90
22321;DHT22;11328;53.928;18.522;2023-12-04T11:13:54;0.80;99.90
22321;DHT22;11328;53.928;18.522;2023-12-04T11:16:35;0.80;99.90
22321;DHT22;11328;53.928;18.522;2023-12-04T11:21:53;0.80;99.90
22321;DHT22;11328;53.928;18.522;2023-12-04T11:24:24;0.80;99.90
22321;DHT22;11328;53.928;18.522;2023-12-04T11:26:52;0.80;99.90
22321;DHT22;11328;53.928;18.522;2023-12-04T11:29:21;1.00;99.90
22321;DHT22;11328;53.928;18.522;2023-12-04T11:31:50;1.00;99.90
22321;DHT22;11328;53.928;18.522;2023-12-04T11:34:17;1.00;99.90
22321;DHT22;11328;53.928;18.522;2023-12-04T11:36:44;0.90;99.90
22321;DHT22;11328;53.928;18.522;2023-12-04T11:39:12;0.90;99.90
22321;DHT22;11328;53.928;18.522;2023-12-04T11:41:42;0.80;99.90
22321;DHT22;11328;53.928;18.522;2023-12-04T11:44:13;0.70;99.90
22321;DHT22;11328;53.928;18.522;2023-12-04T11:47:04;0.80;99.90
22321;DHT22;11328;53.928;18.522;2023-12-04T11:49:33;0.70;99.90
22321;DHT22;11328;53.928;18.522;2023-12-04T11:52:03;0.70;99.90
22321;DHT22;11328;53.928;18.522;2023-12-04T11:55:01;0.60;99.90
22321;DHT22;11328;53.928;18.522;2023-12-04T11:57:39;0.90;99.90
22321;DHT22;11328;53.928;18.522;2023-12-04T12:05:39;1.10;99.90
22321;DHT22;11328;53.928;18.522;2023-12-04T12:08:09;1.30;99.90
22321;DHT22;11328;53.928;18.522;2023-12-04T12:10:36;1.40;99.90
22321;DHT22;11328;53.928;18.522;2023-12-04T12:13:04;1.20;99.90
22321;DHT22;11328;53.928;18.522;2023-12-04T12:15:32;1.20;99.90
22321;DHT22;11328;53.928;18.522;2023-12-04T12:18:00;1.10;99.90
22321;DHT22;11328;53.928;18.522;2023-12-04T12:20:28;1.00;99.90
22321;DHT22;11328;53.928;18.522;2023-12-04T12:22:55;1.00;99.90
22321;DHT22;11328;53.928;18.522;2023-12-04T12:25:23;1.00;99.90
22321;DHT22;11328;53.928;18.522;2023-12-04T12:27:52;0.70;99.90
22321;DHT22;11328;53.928;18.522;2023-12-04T12:30:20;0.60;99.90
22321;DHT22;11328;53.928;18.522;2023-12-04T12:32:47;0.50;99.90
22321;DHT22;11328;53.928;18.522;2023-12-04T12:35:14;0.60;99.90
22321;DHT22;11328;53.928;18.522;2023-12-04T12:37:41;0.60;99.90
22321;DHT22;11328;53.928;18.522;2023-12-04T12:40:09;0.40;99.90
22321;DHT22;11328;53.928;18.522;2023-12-04T12:42:37;0.50;99.90
22321;DHT22;11328;53.928;18.522;2023-12-04T12:45:09;0.60;99.90
22321;DHT22;11328;53.928;18.522;2023-12-04T12:47:45;0.60;99.90
22321;DHT22;11328;53.928;18.522;2023-12-04T12:50:13;0.60;99.90
22321;DHT22;11328;53.928;18.522;2023-12-04T12:52:42;0.60;99.90
22321;DHT22;11328;53.928;18.522;2023-12-04T12:55:10;0.50;99.90
22321;DHT22;11328;53.928;18.522;2023-12-04T12:57:37;0.50;99.90
22321;DHT22;11328;53.928;18.522;2023-12-04T13:00:06;0.50;99.90
22321;DHT22;11328;53.928;18.522;2023-12-04T13:02:35;0.60;99.90
22321;DHT22;11328;53.928;18.522;2023-12-04T13:05:05;0.70;99.90
22321;DHT22;11328;53.928;18.522;2023-12-04T13:07:33;0.80;99.90
22321;DHT22;11328;53.928;18.522;2023-12-04T13:10:00;0.80;99.90
22321;DHT22;11328;53.928;18.522;2023-12-04T13:12:27;0.80;99.90
22321;DHT22;11328;53.928;18.522;2023-12-04T13:14:54;0.60;99.90
22321;DHT22;11328;53.928;18.522;2023-12-04T13:17:22;0.50;99.90
22321;DHT22;11328;53.928;18.522;2023-12-04T13:19:49;0.50;99.90
22321;DHT22;11328;53.928;18.522;2023-12-04T13:22:16;0.50;99.90
22321;DHT22;11328;53.928;18.522;2023-12-04T13:24:43;0.50;99.90
22321;DHT22;11328;53.928;18.522;2023-12-04T13:27:10;0.60;99.90
22321;DHT22;11328;53.928;18.522;2023-12-04T13:29:37;0.60;99.90
22321;DHT22;11328;53.928;18.522;2023-12-04T13:32:05;0.60;99.90
22321;DHT22;11328;53.928;18.522;2023-12-04T13:34:32;0.50;99.90
22321;DHT22;11328;53.928;18.522;2023-12-04T13:36:59;0.50;99.90
22321;DHT22;11328;53.928;18.522;2023-12-04T13:39:26;0.60;99.90
22321;DHT22;11328;53.928;18.522;2023-12-04T13:42:03;0.70;99.90
22321;DHT22;11328;53.928;18.522;2023-12-04T13:44:49;0.80;99.90
22321;DHT22;11328;53.928;18.522;2023-12-04T13:47:18;0.80;99.90
22321;DHT22;11328;53.928;18.522;2023-12-04T13:49:45;0.80;99.90
22321;DHT22;11328;53.928;18.522;2023-12-04T13:52:13;0.90;99.90
22321;DHT22;11328;53.928;18.522;2023-12-04T13:54:40;0.90;99.90
22321;DHT22;11328;53.928;18.522;2023-12-04T13:57:14;0.90;99.90
22321;DHT22;11328;53.928;18.522;2023-12-04T14:00:01;0.90;99.90
22321;DHT22;11328;53.928;18.522;2023-12-04T14:02:30;0.90;99.90
22321;DHT22;11328;53.928;18.522;2023-12-04T14:04:57;0.70;99.90
22321;DHT22;11328;53.928;18.522;2023-12-04T14:07:25;0.50;99.90
22321;DHT22;11328;53.928;18.522;2023-12-04T14:09:53;0.50;99.90
22321;DHT22;11328;53.928;18.522;2023-12-04T14:12:20;0.50;99.90
22321;DHT22;11328;53.928;18.522;2023-12-04T14:14:48;0.60;99.90
22321;DHT22;11328;53.928;18.522;2023-12-04T14:17:15;0.70;99.90
22321;DHT22;11328;53.928;18.522;2023-12-04T14:19:42;0.70;99.90
22321;DHT22;11328;53.928;18.522;2023-12-04T14:22:09;0.70;99.90
22321;DHT22;11328;53.928;18.522;2023-12-04T14:24:36;0.80;99.90
22321;DHT22;11328;53.928;18.522;2023-12-04T14:27:04;0.80;99.90
22321;DHT22;11328;53.928;18.522;2023-12-04T14:29:32;0.90;99.90
22321;DHT22;11328;53.928;18.522;2023-12-04T14:32:00;0.80;99.90
22321;DHT22;11328;53.928;18.522;2023-12-04T14:34:27;0.70;99.90
22321;DHT22;11328;53.928;18.522;2023-12-04T14:36:55;0.80;99.90
22321;DHT22;11328;53.928;18.522;2023-12-04T14:39:22;0.90;99.90
22321;DHT22;11328;53.928;18.522;2023-12-04T14:41:50;0.90;99.90
22321;DHT22;11328;53.928;18.522;2023-12-04T14:44:17;1.00;99.90
22321;DHT22;11328;53.928;18.522;2023-12-04T14:46:45;1.10;99.90
22321;DHT22;11328;53.928;18.522;2023-12-04T14:49:12;1.20;99.90
22321;DHT22;11328;53.928;18.522;2023-12-04T14:51:39;1.20;99.90
22321;DHT22;11328;53.928;18.522;2023-12-04T14:54:07;1.30;99.90
22321;DHT22;11328;53.928;18.522;2023-12-04T14:57:05;1.30;99.90
22321;DHT22;11328;53.928;18.522;2023-12-04T14:59:52;1.30;99.90
22321;DHT22;11328;53.928;18.522;2023-12-04T15:02:42;1.30;99.90
22321;DHT22;11328;53.928;18.522;2023-12-04T15:05:16;1.20;99.90
22321;DHT22;11328;53.928;18.522;2023-12-04T15:07:47;1.30;99.90
22321;DHT22;11328;53.928;18.522;2023-12-04T15:10:33;1.20;99.90
22321;DHT22;11328;53.928;18.522;2023-12-04T15:13:30;1.10;99.90
22321;DHT22;11328;53.928;18.522;2023-12-04T15:15:57;1.00;99.90
22321;DHT22;11328;53.928;18.522;2023-12-04T15:18:40;1.10;99.90
22321;DHT22;11328;53.928;18.522;2023-12-04T15:21:39;1.20;99.90
22321;DHT22;11328;53.928;18.522;2023-12-04T15:24:07;1.30;99.90
22321;DHT22;11328;53.928;18.522;2023-12-04T15:26:34;1.40;99.90
22321;DHT22;11328;53.928;18.522;2023-12-04T15:29:01;1.50;99.90
22321;DHT22;11328;53.928;18.522;2023-12-04T15:31:31;1.30;99.90
22321;DHT22;11328;53.928;18.522;2023-12-04T15:33:59;1.30;99.90
22321;DHT22;11328;53.928;18.522;2023-12-04T15:36:26;1.30;99.90
22321;DHT22;11328;53.928;18.522;2023-12-04T15:38:54;1.40;99.90
22321;DHT22;11328;53.928;18.522;2023-12-04T15:41:21;1.50;99.90
22321;DHT22;11328;53.928;18.522;2023-12-04T15:43:48;1.50;99.90
22321;DHT22;11328;53.928;18.522;2023-12-04T15:46:16;1.40;99.90
22321;DHT22;11328;53.928;18.522;2023-12-04T15:48:46;1.30;99.90